メインページ
METAR-TAF:

METAR-TAF

空港 :

アタテュルク国際空港

イスタンブル-アタテュルク, トルコ

緯度: 40-58N, 経度: 028-49E, 海抜: 48m

現時点の気象観測

当レポートは27分前の09:50(UTC)に作成
南/南西の風 6kt、から西の間で変化する
気温 27°C
湿度 74%
気圧 1014 hPa
視程10km以上
高度4000ftの雲はほとんどない
高度10000ftの雲は散在している
高度18000ftの千切れ雲あり

METAR: LTBA 210950Z 20006KT 170V260 9999 FEW040 SCT100 BKN180 27/22 Q1014 NOSIG RMK RWY17L 08008KT 030V160 RWY05 20005KT 150V230 RWY23 17005KT 080V230

時間: 13:17 (10:17 UTC)

予報

当レポートは5時間37分前の04:40(UTC)に作成
予報は21日の 06時(UTC)から 22日の 12時(UTC)まで有効
北/北東の風 12kt
視程10km以上
高度3500ftの雲は散在している
21日の 08時(UTC)から 21日の 12時(UTC)まで一時的に
南/南西の風 12kt
21日の 15時(UTC)から 21日の 18時(UTC)まで徐々に
変向風 2kt
視程10km以上
1,500メートル以下は雲なし、積乱雲なし
22日の 03時(UTC)から 22日の 06時(UTC)まで徐々に
南/南西の風 12kt
高度3500ftの雲は散在している
高度9000ftの千切れ雲あり
22日の 08時(UTC)から 22日の 12時(UTC)まで一時的に
弱いにわか雨

TAF: LTBA 210440Z 2106/2212 03012KT 9999 SCT035 TEMPO 2108/2112 21012KT BECMG 2115/2118 VRB02KT CAVOK BECMG 2203/2206 21012KT SCT035 BKN090 TEMPO 2208/2212 -SHRA

4,000以上の空港の気象観測と天気予報(METAR報とTAF報)

利用可能な観測所は地図上に黄色い丸と赤い丸で示す。

丸の上にカーソルを重ねると観測所名を参照できる。

次にクリックすると気象観測と天気予報を参照できる。

マップの切り替え:黒色「×」印の緑ボタンをクリックして拡大、「-」印の緑ボタンをクリックして縮小、緑色の三角印をクリックして隣りの地図に切り替え


METAR-TAF: